sensor_id;sensor_type;location;lat;lon;timestamp;P1;durP1;ratioP1;P2;durP2;ratioP2
2462;SDS011;1243;54.298;10.172;2022-10-16T00:01:34;8.33;;;7.00;;
2462;SDS011;1243;54.298;10.172;2022-10-16T00:04:00;10.07;;;8.53;;
2462;SDS011;1243;54.298;10.172;2022-10-16T00:06:27;7.60;;;6.40;;
2462;SDS011;1243;54.298;10.172;2022-10-16T00:08:54;9.00;;;7.33;;
2462;SDS011;1243;54.298;10.172;2022-10-16T00:11:21;13.83;;;8.97;;
2462;SDS011;1243;54.298;10.172;2022-10-16T00:13:50;12.10;;;8.20;;
2462;SDS011;1243;54.298;10.172;2022-10-16T00:16:19;11.40;;;7.73;;
2462;SDS011;1243;54.298;10.172;2022-10-16T00:18:45;14.80;;;7.70;;
2462;SDS011;1243;54.298;10.172;2022-10-16T00:21:12;8.50;;;7.60;;
2462;SDS011;1243;54.298;10.172;2022-10-16T00:23:40;7.07;;;6.37;;
2462;SDS011;1243;54.298;10.172;2022-10-16T00:26:07;14.50;;;7.83;;
2462;SDS011;1243;54.298;10.172;2022-10-16T00:28:37;13.60;;;7.40;;
2462;SDS011;1243;54.298;10.172;2022-10-16T00:31:04;12.83;;;7.30;;
2462;SDS011;1243;54.298;10.172;2022-10-16T00:33:35;10.83;;;7.20;;
2462;SDS011;1243;54.298;10.172;2022-10-16T00:36:03;12.33;;;7.83;;
2462;SDS011;1243;54.298;10.172;2022-10-16T00:38:29;10.23;;;7.33;;
2462;SDS011;1243;54.298;10.172;2022-10-16T00:40:55;12.23;;;7.40;;
2462;SDS011;1243;54.298;10.172;2022-10-16T00:43:39;14.20;;;7.53;;
2462;SDS011;1243;54.298;10.172;2022-10-16T00:46:41;9.40;;;6.00;;
2462;SDS011;1243;54.298;10.172;2022-10-16T00:49:00;8.70;;;6.27;;
2462;SDS011;1243;54.298;10.172;2022-10-16T00:51:37;11.07;;;6.30;;
2462;SDS011;1243;54.298;10.172;2022-10-16T00:54:09;19.10;;;7.70;;
2462;SDS011;1243;54.298;10.172;2022-10-16T00:56:39;10.93;;;6.67;;
2462;SDS011;1243;54.298;10.172;2022-10-16T00:59:07;9.07;;;6.77;;
2462;SDS011;1243;54.298;10.172;2022-10-16T01:01:40;10.10;;;5.77;;
2462;SDS011;1243;54.298;10.172;2022-10-16T01:04:05;11.10;;;7.00;;
2462;SDS011;1243;54.298;10.172;2022-10-16T01:09:17;8.03;;;6.33;;
2462;SDS011;1243;54.298;10.172;2022-10-16T01:14:28;8.97;;;6.53;;
2462;SDS011;1243;54.298;10.172;2022-10-16T01:16:58;11.40;;;6.30;;
2462;SDS011;1243;54.298;10.172;2022-10-16T01:22:39;7.60;;;6.73;;
2462;SDS011;1243;54.298;10.172;2022-10-16T01:28:18;7.00;;;5.07;;
2462;SDS011;1243;54.298;10.172;2022-10-16T01:30:49;11.13;;;6.00;;
2462;SDS011;1243;54.298;10.172;2022-10-16T01:33:22;7.93;;;6.10;;
2462;SDS011;1243;54.298;10.172;2022-10-16T01:35:54;8.00;;;6.43;;
2462;SDS011;1243;54.298;10.172;2022-10-16T01:38:25;7.60;;;6.03;;
2462;SDS011;1243;54.298;10.172;2022-10-16T01:41:00;8.03;;;6.63;;
2462;SDS011;1243;54.298;10.172;2022-10-16T01:43:53;8.30;;;5.13;;
2462;SDS011;1243;54.298;10.172;2022-10-16T01:46:27;14.67;;;6.00;;
2462;SDS011;1243;54.298;10.172;2022-10-16T01:48:55;12.97;;;7.00;;
2462;SDS011;1243;54.298;10.172;2022-10-16T01:51:22;9.90;;;6.97;;
2462;SDS011;1243;54.298;10.172;2022-10-16T01:53:50;10.93;;;6.43;;
2462;SDS011;1243;54.298;10.172;2022-10-16T01:56:19;6.67;;;5.30;;
2462;SDS011;1243;54.298;10.172;2022-10-16T01:58:57;13.23;;;6.37;;
2462;SDS011;1243;54.298;10.172;2022-10-16T02:01:31;7.90;;;6.33;;
2462;SDS011;1243;54.298;10.172;2022-10-16T02:04:01;11.00;;;6.43;;
2462;SDS011;1243;54.298;10.172;2022-10-16T02:06:40;10.07;;;6.73;;
2462;SDS011;1243;54.298;10.172;2022-10-16T02:09:06;8.30;;;6.70;;
2462;SDS011;1243;54.298;10.172;2022-10-16T02:11:32;8.33;;;6.20;;
2462;SDS011;1243;54.298;10.172;2022-10-16T02:14:01;8.63;;;6.03;;
2462;SDS011;1243;54.298;10.172;2022-10-16T02:19:24;9.40;;;6.37;;
2462;SDS011;1243;54.298;10.172;2022-10-16T02:21:51;10.50;;;7.13;;
2462;SDS011;1243;54.298;10.172;2022-10-16T02:29:43;8.60;;;5.93;;
2462;SDS011;1243;54.298;10.172;2022-10-16T02:32:19;7.93;;;7.13;;
2462;SDS011;1243;54.298;10.172;2022-10-16T02:34:48;10.13;;;6.97;;
2462;SDS011;1243;54.298;10.172;2022-10-16T02:37:16;13.40;;;6.97;;
2462;SDS011;1243;54.298;10.172;2022-10-16T02:39:43;15.10;;;6.30;;
2462;SDS011;1243;54.298;10.172;2022-10-16T02:42:12;12.83;;;7.30;;
2462;SDS011;1243;54.298;10.172;2022-10-16T02:44:38;9.20;;;5.17;;
2462;SDS011;1243;54.298;10.172;2022-10-16T02:47:04;11.20;;;5.20;;
2462;SDS011;1243;54.298;10.172;2022-10-16T02:49:30;10.17;;;6.10;;
2462;SDS011;1243;54.298;10.172;2022-10-16T02:51:56;9.10;;;6.57;;
2462;SDS011;1243;54.298;10.172;2022-10-16T02:54:21;8.50;;;6.30;;
2462;SDS011;1243;54.298;10.172;2022-10-16T02:56:47;9.40;;;5.80;;
2462;SDS011;1243;54.298;10.172;2022-10-16T02:59:12;9.50;;;5.90;;
2462;SDS011;1243;54.298;10.172;2022-10-16T03:01:38;7.70;;;5.60;;
2462;SDS011;1243;54.298;10.172;2022-10-16T03:04:04;11.13;;;6.57;;
2462;SDS011;1243;54.298;10.172;2022-10-16T03:06:29;8.80;;;5.77;;
2462;SDS011;1243;54.298;10.172;2022-10-16T03:08:55;12.90;;;7.03;;
2462;SDS011;1243;54.298;10.172;2022-10-16T03:11:21;7.90;;;5.97;;
2462;SDS011;1243;54.298;10.172;2022-10-16T03:13:46;7.27;;;5.47;;
2462;SDS011;1243;54.298;10.172;2022-10-16T03:16:12;6.80;;;4.87;;
2462;SDS011;1243;54.298;10.172;2022-10-16T03:18:38;8.80;;;5.80;;
2462;SDS011;1243;54.298;10.172;2022-10-16T03:21:04;10.63;;;4.90;;
2462;SDS011;1243;54.298;10.172;2022-10-16T03:23:29;7.13;;;4.93;;
2462;SDS011;1243;54.298;10.172;2022-10-16T03:25:55;9.00;;;4.80;;
2462;SDS011;1243;54.298;10.172;2022-10-16T03:28:20;8.07;;;5.20;;
2462;SDS011;1243;54.298;10.172;2022-10-16T03:30:46;8.60;;;4.70;;
2462;SDS011;1243;54.298;10.172;2022-10-16T03:33:12;4.80;;;3.70;;
2462;SDS011;1243;54.298;10.172;2022-10-16T03:35:37;4.53;;;4.10;;
2462;SDS011;1243;54.298;10.172;2022-10-16T03:38:03;6.07;;;4.20;;
2462;SDS011;1243;54.298;10.172;2022-10-16T03:40:29;4.30;;;3.70;;
2462;SDS011;1243;54.298;10.172;2022-10-16T03:42:57;7.80;;;3.97;;
2462;SDS011;1243;54.298;10.172;2022-10-16T03:45:26;6.00;;;4.23;;
2462;SDS011;1243;54.298;10.172;2022-10-16T03:47:52;8.20;;;3.50;;
2462;SDS011;1243;54.298;10.172;2022-10-16T03:50:18;2.70;;;2.50;;
2462;SDS011;1243;54.298;10.172;2022-10-16T03:52:43;5.00;;;3.60;;
2462;SDS011;1243;54.298;10.172;2022-10-16T03:55:09;4.03;;;3.73;;
2462;SDS011;1243;54.298;10.172;2022-10-16T03:57:35;5.93;;;3.60;;
2462;SDS011;1243;54.298;10.172;2022-10-16T04:00:00;7.63;;;3.67;;
2462;SDS011;1243;54.298;10.172;2022-10-16T04:02:26;3.20;;;2.90;;
2462;SDS011;1243;54.298;10.172;2022-10-16T04:04:51;4.37;;;3.40;;
2462;SDS011;1243;54.298;10.172;2022-10-16T04:07:17;6.50;;;5.90;;
2462;SDS011;1243;54.298;10.172;2022-10-16T04:09:43;4.83;;;3.17;;
2462;SDS011;1243;54.298;10.172;2022-10-16T04:12:09;5.40;;;3.90;;
2462;SDS011;1243;54.298;10.172;2022-10-16T04:14:35;6.60;;;2.77;;
2462;SDS011;1243;54.298;10.172;2022-10-16T04:17:00;3.83;;;2.73;;
2462;SDS011;1243;54.298;10.172;2022-10-16T04:19:26;4.13;;;3.20;;
2462;SDS011;1243;54.298;10.172;2022-10-16T04:21:52;8.93;;;3.37;;
2462;SDS011;1243;54.298;10.172;2022-10-16T04:24:17;3.27;;;3.00;;
2462;SDS011;1243;54.298;10.172;2022-10-16T04:26:43;7.10;;;2.87;;
2462;SDS011;1243;54.298;10.172;2022-10-16T04:29:08;5.30;;;2.80;;
2462;SDS011;1243;54.298;10.172;2022-10-16T04:31:34;3.53;;;3.23;;
2462;SDS011;1243;54.298;10.172;2022-10-16T04:34:00;3.90;;;2.43;;
2462;SDS011;1243;54.298;10.172;2022-10-16T04:36:25;3.30;;;2.70;;
2462;SDS011;1243;54.298;10.172;2022-10-16T04:38:51;5.63;;;3.30;;
2462;SDS011;1243;54.298;10.172;2022-10-16T04:41:17;2.77;;;2.57;;
2462;SDS011;1243;54.298;10.172;2022-10-16T04:43:42;2.60;;;2.40;;
2462;SDS011;1243;54.298;10.172;2022-10-16T04:46:08;4.43;;;3.00;;
2462;SDS011;1243;54.298;10.172;2022-10-16T04:48:35;3.30;;;2.77;;
2462;SDS011;1243;54.298;10.172;2022-10-16T04:51:00;5.63;;;2.33;;
2462;SDS011;1243;54.298;10.172;2022-10-16T04:53:26;6.80;;;2.30;;
2462;SDS011;1243;54.298;10.172;2022-10-16T04:55:52;9.53;;;2.93;;
2462;SDS011;1243;54.298;10.172;2022-10-16T04:58:17;3.83;;;2.60;;
2462;SDS011;1243;54.298;10.172;2022-10-16T05:00:43;2.67;;;2.10;;
2462;SDS011;1243;54.298;10.172;2022-10-16T05:03:09;2.40;;;2.20;;
2462;SDS011;1243;54.298;10.172;2022-10-16T05:05:35;4.20;;;2.17;;
2462;SDS011;1243;54.298;10.172;2022-10-16T05:08:01;6.37;;;2.77;;
2462;SDS011;1243;54.298;10.172;2022-10-16T05:10:27;4.57;;;2.30;;
2462;SDS011;1243;54.298;10.172;2022-10-16T05:12:53;4.83;;;2.13;;
2462;SDS011;1243;54.298;10.172;2022-10-16T05:15:19;2.70;;;2.50;;
2462;SDS011;1243;54.298;10.172;2022-10-16T05:17:45;6.30;;;2.60;;
2462;SDS011;1243;54.298;10.172;2022-10-16T05:20:11;2.70;;;2.03;;
2462;SDS011;1243;54.298;10.172;2022-10-16T05:22:38;2.93;;;2.73;;
2462;SDS011;1243;54.298;10.172;2022-10-16T05:25:04;4.57;;;2.63;;
2462;SDS011;1243;54.298;10.172;2022-10-16T05:27:30;2.80;;;1.97;;
2462;SDS011;1243;54.298;10.172;2022-10-16T05:29:55;4.87;;;2.67;;
2462;SDS011;1243;54.298;10.172;2022-10-16T05:32:21;2.50;;;2.17;;
2462;SDS011;1243;54.298;10.172;2022-10-16T05:34:47;4.17;;;2.83;;
2462;SDS011;1243;54.298;10.172;2022-10-16T05:37:12;9.73;;;5.20;;
2462;SDS011;1243;54.298;10.172;2022-10-16T05:39:38;3.53;;;2.30;;
2462;SDS011;1243;54.298;10.172;2022-10-16T05:42:04;3.37;;;1.93;;
2462;SDS011;1243;54.298;10.172;2022-10-16T05:44:30;2.50;;;2.30;;
2462;SDS011;1243;54.298;10.172;2022-10-16T05:46:56;2.90;;;2.60;;
2462;SDS011;1243;54.298;10.172;2022-10-16T05:49:22;2.50;;;2.30;;
2462;SDS011;1243;54.298;10.172;2022-10-16T05:51:47;2.67;;;2.03;;
2462;SDS011;1243;54.298;10.172;2022-10-16T05:54:13;2.33;;;2.00;;
2462;SDS011;1243;54.298;10.172;2022-10-16T05:56:39;2.60;;;1.90;;
2462;SDS011;1243;54.298;10.172;2022-10-16T05:59:05;3.40;;;2.50;;
2462;SDS011;1243;54.298;10.172;2022-10-16T06:01:30;3.30;;;2.67;;
2462;SDS011;1243;54.298;10.172;2022-10-16T06:03:56;3.90;;;2.60;;
2462;SDS011;1243;54.298;10.172;2022-10-16T06:06:24;4.23;;;2.57;;
2462;SDS011;1243;54.298;10.172;2022-10-16T06:08:52;2.03;;;1.93;;
2462;SDS011;1243;54.298;10.172;2022-10-16T06:11:20;2.40;;;2.20;;
2462;SDS011;1243;54.298;10.172;2022-10-16T06:13:55;4.57;;;2.53;;
2462;SDS011;1243;54.298;10.172;2022-10-16T06:16:22;2.40;;;2.20;;
2462;SDS011;1243;54.298;10.172;2022-10-16T06:18:50;6.40;;;3.00;;
2462;SDS011;1243;54.298;10.172;2022-10-16T06:21:18;2.27;;;1.80;;
2462;SDS011;1243;54.298;10.172;2022-10-16T06:23:49;2.23;;;2.03;;
2462;SDS011;1243;54.298;10.172;2022-10-16T06:26:17;4.03;;;2.40;;
2462;SDS011;1243;54.298;10.172;2022-10-16T06:28:44;3.17;;;2.20;;
2462;SDS011;1243;54.298;10.172;2022-10-16T06:31:11;3.40;;;1.90;;
2462;SDS011;1243;54.298;10.172;2022-10-16T06:33:37;2.20;;;2.00;;
2462;SDS011;1243;54.298;10.172;2022-10-16T06:36:04;4.60;;;2.20;;
2462;SDS011;1243;54.298;10.172;2022-10-16T06:38:33;3.43;;;2.80;;
2462;SDS011;1243;54.298;10.172;2022-10-16T06:40:59;2.37;;;2.17;;
2462;SDS011;1243;54.298;10.172;2022-10-16T06:43:25;2.63;;;2.10;;
2462;SDS011;1243;54.298;10.172;2022-10-16T06:45:54;7.30;;;2.10;;
2462;SDS011;1243;54.298;10.172;2022-10-16T06:48:21;3.60;;;1.93;;
2462;SDS011;1243;54.298;10.172;2022-10-16T06:50:58;5.50;;;2.07;;
2462;SDS011;1243;54.298;10.172;2022-10-16T06:53:38;5.67;;;2.20;;
2462;SDS011;1243;54.298;10.172;2022-10-16T06:56:06;4.60;;;2.03;;
2462;SDS011;1243;54.298;10.172;2022-10-16T06:58:39;3.00;;;2.80;;
2462;SDS011;1243;54.298;10.172;2022-10-16T07:01:05;2.50;;;2.00;;
2462;SDS011;1243;54.298;10.172;2022-10-16T07:03:31;2.67;;;2.20;;
2462;SDS011;1243;54.298;10.172;2022-10-16T07:06:00;4.87;;;1.90;;
2462;SDS011;1243;54.298;10.172;2022-10-16T07:08:30;6.60;;;2.23;;
2462;SDS011;1243;54.298;10.172;2022-10-16T07:11:00;2.20;;;2.00;;
2462;SDS011;1243;54.298;10.172;2022-10-16T07:13:31;2.67;;;2.47;;
2462;SDS011;1243;54.298;10.172;2022-10-16T07:16:03;3.07;;;2.20;;
2462;SDS011;1243;54.298;10.172;2022-10-16T07:18:36;3.70;;;2.50;;
2462;SDS011;1243;54.298;10.172;2022-10-16T07:23:38;3.20;;;2.40;;
2462;SDS011;1243;54.298;10.172;2022-10-16T07:26:04;4.13;;;2.20;;
2462;SDS011;1243;54.298;10.172;2022-10-16T07:28:30;6.13;;;2.67;;
2462;SDS011;1243;54.298;10.172;2022-10-16T07:31:00;4.13;;;2.30;;
2462;SDS011;1243;54.298;10.172;2022-10-16T07:33:36;5.87;;;2.63;;
2462;SDS011;1243;54.298;10.172;2022-10-16T07:36:02;6.37;;;2.57;;
2462;SDS011;1243;54.298;10.172;2022-10-16T07:38:28;2.43;;;2.23;;
2462;SDS011;1243;54.298;10.172;2022-10-16T07:40:58;4.20;;;2.70;;
2462;SDS011;1243;54.298;10.172;2022-10-16T07:43:28;4.17;;;2.40;;
2462;SDS011;1243;54.298;10.172;2022-10-16T07:45:54;5.90;;;2.40;;
2462;SDS011;1243;54.298;10.172;2022-10-16T07:48:20;2.47;;;2.27;;
2462;SDS011;1243;54.298;10.172;2022-10-16T07:50:47;3.43;;;2.20;;
2462;SDS011;1243;54.298;10.172;2022-10-16T07:53:13;2.57;;;2.30;;
2462;SDS011;1243;54.298;10.172;2022-10-16T07:55:39;3.77;;;1.90;;
2462;SDS011;1243;54.298;10.172;2022-10-16T07:58:05;3.60;;;3.30;;
2462;SDS011;1243;54.298;10.172;2022-10-16T08:00:31;4.20;;;3.07;;
2462;SDS011;1243;54.298;10.172;2022-10-16T08:02:58;6.07;;;2.67;;
2462;SDS011;1243;54.298;10.172;2022-10-16T08:05:30;3.87;;;2.73;;
2462;SDS011;1243;54.298;10.172;2022-10-16T08:07:57;5.40;;;2.67;;
2462;SDS011;1243;54.298;10.172;2022-10-16T08:10:24;3.30;;;3.00;;
2462;SDS011;1243;54.298;10.172;2022-10-16T08:12:51;4.40;;;2.97;;
2462;SDS011;1243;54.298;10.172;2022-10-16T08:15:17;3.03;;;2.73;;
2462;SDS011;1243;54.298;10.172;2022-10-16T08:17:43;3.47;;;2.70;;
2462;SDS011;1243;54.298;10.172;2022-10-16T08:20:09;3.97;;;3.30;;
2462;SDS011;1243;54.298;10.172;2022-10-16T08:22:35;2.70;;;2.50;;
2462;SDS011;1243;54.298;10.172;2022-10-16T08:25:01;5.57;;;2.97;;
2462;SDS011;1243;54.298;10.172;2022-10-16T08:27:31;4.47;;;2.93;;
2462;SDS011;1243;54.298;10.172;2022-10-16T08:29:57;4.23;;;3.50;;
2462;SDS011;1243;54.298;10.172;2022-10-16T08:32:23;4.10;;;2.80;;
2462;SDS011;1243;54.298;10.172;2022-10-16T08:34:48;3.70;;;3.40;;
2462;SDS011;1243;54.298;10.172;2022-10-16T08:37:14;5.13;;;3.00;;
2462;SDS011;1243;54.298;10.172;2022-10-16T08:39:40;4.33;;;3.40;;
2462;SDS011;1243;54.298;10.172;2022-10-16T08:45:18;3.50;;;3.07;;
2462;SDS011;1243;54.298;10.172;2022-10-16T08:47:24;4.33;;;3.43;;
2462;SDS011;1243;54.298;10.172;2022-10-16T08:49:59;5.40;;;3.20;;
2462;SDS011;1243;54.298;10.172;2022-10-16T08:52:34;4.03;;;3.17;;
2462;SDS011;1243;54.298;10.172;2022-10-16T08:55:03;4.10;;;3.10;;
2462;SDS011;1243;54.298;10.172;2022-10-16T08:57:29;4.07;;;3.57;;
2462;SDS011;1243;54.298;10.172;2022-10-16T08:59:58;5.20;;;3.27;;
2462;SDS011;1243;54.298;10.172;2022-10-16T09:02:49;3.63;;;3.33;;
2462;SDS011;1243;54.298;10.172;2022-10-16T09:05:43;4.57;;;3.27;;
2462;SDS011;1243;54.298;10.172;2022-10-16T09:08:42;6.60;;;4.40;;
2462;SDS011;1243;54.298;10.172;2022-10-16T09:11:25;6.70;;;3.13;;
2462;SDS011;1243;54.298;10.172;2022-10-16T09:17:14;9.30;;;3.50;;
2462;SDS011;1243;54.298;10.172;2022-10-16T09:20:03;5.70;;;4.17;;
2462;SDS011;1243;54.298;10.172;2022-10-16T09:23:14;6.10;;;3.53;;
2462;SDS011;1243;54.298;10.172;2022-10-16T09:25:59;8.73;;;3.93;;
2462;SDS011;1243;54.298;10.172;2022-10-16T09:28:25;6.47;;;3.43;;
2462;SDS011;1243;54.298;10.172;2022-10-16T09:30:51;7.73;;;3.80;;
2462;SDS011;1243;54.298;10.172;2022-10-16T09:33:18;4.13;;;2.80;;
2462;SDS011;1243;54.298;10.172;2022-10-16T09:35:56;6.17;;;2.70;;
2462;SDS011;1243;54.298;10.172;2022-10-16T09:40:57;6.53;;;3.00;;
2462;SDS011;1243;54.298;10.172;2022-10-16T09:43:27;5.47;;;3.23;;
2462;SDS011;1243;54.298;10.172;2022-10-16T09:46:06;4.90;;;2.37;;
2462;SDS011;1243;54.298;10.172;2022-10-16T09:48:37;3.60;;;2.80;;
2462;SDS011;1243;54.298;10.172;2022-10-16T09:51:15;5.20;;;2.67;;
2462;SDS011;1243;54.298;10.172;2022-10-16T09:53:53;4.00;;;2.73;;
2462;SDS011;1243;54.298;10.172;2022-10-16T09:58:55;7.23;;;3.37;;
2462;SDS011;1243;54.298;10.172;2022-10-16T10:01:24;7.07;;;3.10;;
2462;SDS011;1243;54.298;10.172;2022-10-16T10:04:03;4.70;;;2.70;;
2462;SDS011;1243;54.298;10.172;2022-10-16T10:06:31;6.80;;;3.70;;
2462;SDS011;1243;54.298;10.172;2022-10-16T10:11:47;5.43;;;3.57;;
2462;SDS011;1243;54.298;10.172;2022-10-16T10:14:17;5.00;;;3.40;;
2462;SDS011;1243;54.298;10.172;2022-10-16T10:17:02;3.60;;;3.23;;
2462;SDS011;1243;54.298;10.172;2022-10-16T10:22:43;8.77;;;3.50;;
2462;SDS011;1243;54.298;10.172;2022-10-16T10:32:53;3.73;;;2.33;;
2462;SDS011;1243;54.298;10.172;2022-10-16T10:35:45;2.70;;;2.50;;
2462;SDS011;1243;54.298;10.172;2022-10-16T10:38:39;4.30;;;3.10;;
2462;SDS011;1243;54.298;10.172;2022-10-16T10:54:37;8.00;;;2.10;;
2462;SDS011;1243;54.298;10.172;2022-10-16T10:57:33;5.07;;;2.50;;
2462;SDS011;1243;54.298;10.172;2022-10-16T11:00:24;4.57;;;2.10;;
2462;SDS011;1243;54.298;10.172;2022-10-16T11:05:56;11.03;;;2.07;;
2462;SDS011;1243;54.298;10.172;2022-10-16T11:08:25;1.83;;;1.50;;
2462;SDS011;1243;54.298;10.172;2022-10-16T11:11:06;5.17;;;1.60;;
2462;SDS011;1243;54.298;10.172;2022-10-16T11:13:45;2.00;;;1.77;;
2462;SDS011;1243;54.298;10.172;2022-10-16T11:21:28;3.20;;;1.90;;
2462;SDS011;1243;54.298;10.172;2022-10-16T11:24:05;5.60;;;2.07;;
2462;SDS011;1243;54.298;10.172;2022-10-16T11:26:39;1.97;;;1.57;;
2462;SDS011;1243;54.298;10.172;2022-10-16T11:29:13;2.40;;;1.70;;
2462;SDS011;1243;54.298;10.172;2022-10-16T11:31:55;3.10;;;1.70;;
2462;SDS011;1243;54.298;10.172;2022-10-16T11:37:11;2.40;;;1.50;;
2462;SDS011;1243;54.298;10.172;2022-10-16T11:39:46;4.50;;;1.80;;
2462;SDS011;1243;54.298;10.172;2022-10-16T11:42:16;6.53;;;1.87;;
2462;SDS011;1243;54.298;10.172;2022-10-16T11:44:55;8.07;;;2.37;;
2462;SDS011;1243;54.298;10.172;2022-10-16T11:47:33;3.10;;;1.80;;
2462;SDS011;1243;54.298;10.172;2022-10-16T11:50:17;6.30;;;1.70;;
2462;SDS011;1243;54.298;10.172;2022-10-16T11:52:58;5.73;;;1.80;;
2462;SDS011;1243;54.298;10.172;2022-10-16T11:55:42;3.90;;;1.77;;
2462;SDS011;1243;54.298;10.172;2022-10-16T11:58:16;3.53;;;1.93;;
2462;SDS011;1243;54.298;10.172;2022-10-16T12:03:36;3.03;;;1.63;;
2462;SDS011;1243;54.298;10.172;2022-10-16T12:08:49;2.83;;;1.50;;
2462;SDS011;1243;54.298;10.172;2022-10-16T12:13:51;7.43;;;2.10;;
2462;SDS011;1243;54.298;10.172;2022-10-16T12:16:28;4.83;;;1.50;;
2462;SDS011;1243;54.298;10.172;2022-10-16T12:21:50;11.23;;;2.07;;
2462;SDS011;1243;54.298;10.172;2022-10-16T12:24:20;4.37;;;1.73;;
2462;SDS011;1243;54.298;10.172;2022-10-16T12:26:49;8.03;;;2.90;;
2462;SDS011;1243;54.298;10.172;2022-10-16T12:32:18;1.40;;;1.30;;
2462;SDS011;1243;54.298;10.172;2022-10-16T12:35:16;8.60;;;1.63;;
2462;SDS011;1243;54.298;10.172;2022-10-16T12:37:45;2.93;;;1.20;;
2462;SDS011;1243;54.298;10.172;2022-10-16T12:40:12;1.60;;;1.00;;
2462;SDS011;1243;54.298;10.172;2022-10-16T12:42:41;4.97;;;1.67;;
2462;SDS011;1243;54.298;10.172;2022-10-16T12:45:23;5.53;;;1.20;;
2462;SDS011;1243;54.298;10.172;2022-10-16T12:47:56;3.03;;;1.17;;
2462;SDS011;1243;54.298;10.172;2022-10-16T12:50:26;4.30;;;1.97;;
2462;SDS011;1243;54.298;10.172;2022-10-16T12:53:00;3.93;;;1.90;;
2462;SDS011;1243;54.298;10.172;2022-10-16T12:55:32;8.10;;;3.20;;
2462;SDS011;1243;54.298;10.172;2022-10-16T13:00:45;6.93;;;1.83;;
2462;SDS011;1243;54.298;10.172;2022-10-16T13:05:56;2.90;;;1.30;;
2462;SDS011;1243;54.298;10.172;2022-10-16T13:08:35;2.60;;;1.53;;
2462;SDS011;1243;54.298;10.172;2022-10-16T13:13:51;4.00;;;1.70;;
2462;SDS011;1243;54.298;10.172;2022-10-16T13:16:27;3.43;;;1.73;;
2462;SDS011;1243;54.298;10.172;2022-10-16T13:22:05;13.10;;;2.37;;
2462;SDS011;1243;54.298;10.172;2022-10-16T13:27:54;7.97;;;1.67;;
2462;SDS011;1243;54.298;10.172;2022-10-16T13:30:36;8.90;;;1.83;;
2462;SDS011;1243;54.298;10.172;2022-10-16T13:33:19;2.90;;;1.63;;
2462;SDS011;1243;54.298;10.172;2022-10-16T13:35:48;3.10;;;1.67;;
2462;SDS011;1243;54.298;10.172;2022-10-16T13:38:20;6.70;;;1.70;;
2462;SDS011;1243;54.298;10.172;2022-10-16T13:40:49;4.33;;;1.90;;
2462;SDS011;1243;54.298;10.172;2022-10-16T13:43:21;4.07;;;1.50;;
2462;SDS011;1243;54.298;10.172;2022-10-16T13:45:58;2.67;;;1.80;;
2462;SDS011;1243;54.298;10.172;2022-10-16T13:48:38;4.90;;;1.47;;
2462;SDS011;1243;54.298;10.172;2022-10-16T13:53:43;3.03;;;1.17;;
2462;SDS011;1243;54.298;10.172;2022-10-16T13:56:11;7.77;;;1.60;;
2462;SDS011;1243;54.298;10.172;2022-10-16T13:58:57;3.70;;;1.30;;
2462;SDS011;1243;54.298;10.172;2022-10-16T14:04:07;5.17;;;1.93;;
2462;SDS011;1243;54.298;10.172;2022-10-16T14:06:35;2.13;;;1.20;;
2462;SDS011;1243;54.298;10.172;2022-10-16T14:09:06;8.53;;;1.30;;
2462;SDS011;1243;54.298;10.172;2022-10-16T14:11:51;2.90;;;1.30;;
2462;SDS011;1243;54.298;10.172;2022-10-16T14:14:31;2.60;;;1.50;;
2462;SDS011;1243;54.298;10.172;2022-10-16T14:17:04;5.57;;;2.10;;
2462;SDS011;1243;54.298;10.172;2022-10-16T14:19:30;3.63;;;1.67;;
2462;SDS011;1243;54.298;10.172;2022-10-16T14:22:14;3.73;;;1.80;;
2462;SDS011;1243;54.298;10.172;2022-10-16T14:28:00;5.47;;;1.70;;
2462;SDS011;1243;54.298;10.172;2022-10-16T14:30:26;5.10;;;2.13;;
2462;SDS011;1243;54.298;10.172;2022-10-16T14:32:54;6.27;;;1.70;;
2462;SDS011;1243;54.298;10.172;2022-10-16T14:37:54;4.40;;;1.70;;
2462;SDS011;1243;54.298;10.172;2022-10-16T14:40:23;8.13;;;2.30;;
2462;SDS011;1243;54.298;10.172;2022-10-16T14:42:51;5.63;;;1.70;;
2462;SDS011;1243;54.298;10.172;2022-10-16T14:45:21;3.70;;;1.40;;
2462;SDS011;1243;54.298;10.172;2022-10-16T14:47:52;9.90;;;2.13;;
2462;SDS011;1243;54.298;10.172;2022-10-16T14:50:20;2.97;;;1.70;;
2462;SDS011;1243;54.298;10.172;2022-10-16T14:52:46;6.77;;;1.37;;
2462;SDS011;1243;54.298;10.172;2022-10-16T14:55:11;4.90;;;1.77;;
2462;SDS011;1243;54.298;10.172;2022-10-16T14:57:38;1.60;;;1.50;;
2462;SDS011;1243;54.298;10.172;2022-10-16T15:00:18;6.17;;;2.03;;
2462;SDS011;1243;54.298;10.172;2022-10-16T15:02:47;5.80;;;2.10;;
2462;SDS011;1243;54.298;10.172;2022-10-16T15:05:21;3.90;;;1.60;;
2462;SDS011;1243;54.298;10.172;2022-10-16T15:07:51;14.23;;;2.70;;
2462;SDS011;1243;54.298;10.172;2022-10-16T15:10:18;2.53;;;1.97;;
2462;SDS011;1243;54.298;10.172;2022-10-16T15:12:46;4.63;;;1.47;;
2462;SDS011;1243;54.298;10.172;2022-10-16T15:15:19;4.93;;;2.20;;
2462;SDS011;1243;54.298;10.172;2022-10-16T15:17:52;3.83;;;2.00;;
2462;SDS011;1243;54.298;10.172;2022-10-16T15:20:21;4.20;;;1.93;;
2462;SDS011;1243;54.298;10.172;2022-10-16T15:22:47;8.30;;;2.40;;
2462;SDS011;1243;54.298;10.172;2022-10-16T15:25:27;12.73;;;1.90;;
2462;SDS011;1243;54.298;10.172;2022-10-16T15:27:57;3.90;;;1.57;;
2462;SDS011;1243;54.298;10.172;2022-10-16T15:30:27;3.60;;;1.90;;
2462;SDS011;1243;54.298;10.172;2022-10-16T15:32:53;4.03;;;1.97;;
2462;SDS011;1243;54.298;10.172;2022-10-16T15:35:19;3.47;;;1.57;;
2462;SDS011;1243;54.298;10.172;2022-10-16T15:37:46;10.10;;;2.70;;
2462;SDS011;1243;54.298;10.172;2022-10-16T15:40:12;19.43;;;2.70;;
2462;SDS011;1243;54.298;10.172;2022-10-16T15:42:38;3.60;;;2.50;;
2462;SDS011;1243;54.298;10.172;2022-10-16T15:45:04;7.23;;;2.07;;
2462;SDS011;1243;54.298;10.172;2022-10-16T15:47:31;6.17;;;2.03;;
2462;SDS011;1243;54.298;10.172;2022-10-16T15:49:57;7.23;;;2.30;;
2462;SDS011;1243;54.298;10.172;2022-10-16T15:52:23;7.57;;;2.90;;
2462;SDS011;1243;54.298;10.172;2022-10-16T15:54:49;16.40;;;2.30;;
2462;SDS011;1243;54.298;10.172;2022-10-16T15:57:14;6.93;;;1.87;;
2462;SDS011;1243;54.298;10.172;2022-10-16T15:59:40;6.23;;;2.00;;
2462;SDS011;1243;54.298;10.172;2022-10-16T16:02:05;6.90;;;2.57;;
2462;SDS011;1243;54.298;10.172;2022-10-16T16:04:32;10.20;;;2.10;;
2462;SDS011;1243;54.298;10.172;2022-10-16T16:06:58;9.67;;;2.43;;
2462;SDS011;1243;54.298;10.172;2022-10-16T16:09:24;10.33;;;2.83;;
2462;SDS011;1243;54.298;10.172;2022-10-16T16:11:49;10.60;;;2.53;;
2462;SDS011;1243;54.298;10.172;2022-10-16T16:14:17;11.10;;;2.00;;
2462;SDS011;1243;54.298;10.172;2022-10-16T16:16:42;5.47;;;1.97;;
2462;SDS011;1243;54.298;10.172;2022-10-16T16:19:08;8.80;;;3.30;;
2462;SDS011;1243;54.298;10.172;2022-10-16T16:21:34;8.60;;;2.83;;
2462;SDS011;1243;54.298;10.172;2022-10-16T16:24:00;10.43;;;2.60;;
2462;SDS011;1243;54.298;10.172;2022-10-16T16:26:29;10.33;;;2.37;;
2462;SDS011;1243;54.298;10.172;2022-10-16T16:29:01;7.90;;;2.57;;
2462;SDS011;1243;54.298;10.172;2022-10-16T16:31:28;15.07;;;2.57;;
2462;SDS011;1243;54.298;10.172;2022-10-16T16:33:55;9.70;;;3.37;;
2462;SDS011;1243;54.298;10.172;2022-10-16T16:36:22;4.40;;;2.13;;
2462;SDS011;1243;54.298;10.172;2022-10-16T16:38:49;6.90;;;2.63;;
2462;SDS011;1243;54.298;10.172;2022-10-16T16:41:22;10.60;;;3.10;;
2462;SDS011;1243;54.298;10.172;2022-10-16T16:43:50;6.60;;;1.93;;
2462;SDS011;1243;54.298;10.172;2022-10-16T16:46:18;10.30;;;2.80;;
2462;SDS011;1243;54.298;10.172;2022-10-16T16:48:45;15.53;;;2.80;;
2462;SDS011;1243;54.298;10.172;2022-10-16T16:51:15;11.80;;;2.80;;
2462;SDS011;1243;54.298;10.172;2022-10-16T16:53:44;6.90;;;2.60;;
2462;SDS011;1243;54.298;10.172;2022-10-16T16:56:11;6.53;;;2.60;;
2462;SDS011;1243;54.298;10.172;2022-10-16T16:58:37;11.53;;;3.10;;
2462;SDS011;1243;54.298;10.172;2022-10-16T17:01:03;8.10;;;2.73;;
2462;SDS011;1243;54.298;10.172;2022-10-16T17:03:32;12.60;;;4.00;;
2462;SDS011;1243;54.298;10.172;2022-10-16T17:06:00;10.57;;;2.67;;
2462;SDS011;1243;54.298;10.172;2022-10-16T17:08:30;12.33;;;3.57;;